sensor_id;sensor_type;location;lat;lon;timestamp;P1;durP1;ratioP1;P2;durP2;ratioP2
43457;SDS011;29046;54.184;18.680;2024-03-02T00:01:58;47.58;;;27.67;;
43457;SDS011;29046;54.184;18.680;2024-03-02T00:04:26;50.10;;;29.17;;
43457;SDS011;29046;54.184;18.680;2024-03-02T00:06:54;52.63;;;28.83;;
43457;SDS011;29046;54.184;18.680;2024-03-02T00:09:21;43.85;;;26.10;;
43457;SDS011;29046;54.184;18.680;2024-03-02T00:11:49;45.78;;;25.55;;
43457;SDS011;29046;54.184;18.680;2024-03-02T00:14:17;46.80;;;27.55;;
43457;SDS011;29046;54.184;18.680;2024-03-02T00:16:45;48.25;;;26.45;;
43457;SDS011;29046;54.184;18.680;2024-03-02T00:19:12;51.47;;;27.50;;
43457;SDS011;29046;54.184;18.680;2024-03-02T00:21:41;42.50;;;25.63;;
43457;SDS011;29046;54.184;18.680;2024-03-02T00:27:12;44.83;;;27.23;;
43457;SDS011;29046;54.184;18.680;2024-03-02T00:29:41;48.55;;;26.50;;
43457;SDS011;29046;54.184;18.680;2024-03-02T00:32:11;52.03;;;29.77;;
43457;SDS011;29046;54.184;18.680;2024-03-02T00:34:39;45.28;;;27.17;;
43457;SDS011;29046;54.184;18.680;2024-03-02T00:37:07;50.92;;;28.00;;
43457;SDS011;29046;54.184;18.680;2024-03-02T00:39:35;43.40;;;25.50;;
43457;SDS011;29046;54.184;18.680;2024-03-02T00:42:03;50.65;;;27.80;;
43457;SDS011;29046;54.184;18.680;2024-03-02T00:44:30;44.10;;;27.48;;
43457;SDS011;29046;54.184;18.680;2024-03-02T00:47:02;49.58;;;27.77;;
43457;SDS011;29046;54.184;18.680;2024-03-02T00:49:30;46.47;;;27.10;;
43457;SDS011;29046;54.184;18.680;2024-03-02T00:51:58;44.60;;;25.38;;
43457;SDS011;29046;54.184;18.680;2024-03-02T00:54:26;46.03;;;25.80;;
43457;SDS011;29046;54.184;18.680;2024-03-02T00:56:55;50.17;;;28.50;;
43457;SDS011;29046;54.184;18.680;2024-03-02T00:59:25;49.20;;;27.77;;
43457;SDS011;29046;54.184;18.680;2024-03-02T01:01:53;48.95;;;25.98;;
43457;SDS011;29046;54.184;18.680;2024-03-02T01:04:20;43.72;;;25.05;;
43457;SDS011;29046;54.184;18.680;2024-03-02T01:06:48;47.15;;;26.00;;
43457;SDS011;29046;54.184;18.680;2024-03-02T01:09:16;42.65;;;24.90;;
43457;SDS011;29046;54.184;18.680;2024-03-02T01:11:45;44.50;;;25.65;;
43457;SDS011;29046;54.184;18.680;2024-03-02T01:14:13;47.67;;;24.80;;
43457;SDS011;29046;54.184;18.680;2024-03-02T01:16:42;45.78;;;26.13;;
43457;SDS011;29046;54.184;18.680;2024-03-02T01:19:09;43.22;;;25.65;;
43457;SDS011;29046;54.184;18.680;2024-03-02T01:21:37;43.70;;;24.33;;
43457;SDS011;29046;54.184;18.680;2024-03-02T01:24:05;41.97;;;25.00;;
43457;SDS011;29046;54.184;18.680;2024-03-02T01:26:32;45.97;;;25.05;;
43457;SDS011;29046;54.184;18.680;2024-03-02T01:29:00;37.63;;;23.77;;
43457;SDS011;29046;54.184;18.680;2024-03-02T01:31:28;43.55;;;25.23;;
43457;SDS011;29046;54.184;18.680;2024-03-02T01:33:55;39.63;;;24.73;;
43457;SDS011;29046;54.184;18.680;2024-03-02T01:36:23;41.70;;;24.13;;
43457;SDS011;29046;54.184;18.680;2024-03-02T01:38:50;46.08;;;25.10;;
43457;SDS011;29046;54.184;18.680;2024-03-02T01:41:18;40.47;;;24.30;;
43457;SDS011;29046;54.184;18.680;2024-03-02T01:43:46;44.30;;;24.58;;
43457;SDS011;29046;54.184;18.680;2024-03-02T01:46:13;41.65;;;23.13;;
43457;SDS011;29046;54.184;18.680;2024-03-02T01:48:41;46.13;;;24.92;;
43457;SDS011;29046;54.184;18.680;2024-03-02T01:51:09;43.50;;;23.00;;
43457;SDS011;29046;54.184;18.680;2024-03-02T01:53:37;48.15;;;25.75;;
43457;SDS011;29046;54.184;18.680;2024-03-02T01:56:05;40.83;;;23.90;;
43457;SDS011;29046;54.184;18.680;2024-03-02T01:58:32;43.22;;;25.00;;
43457;SDS011;29046;54.184;18.680;2024-03-02T02:01:00;48.20;;;25.00;;
43457;SDS011;29046;54.184;18.680;2024-03-02T02:03:28;41.20;;;24.80;;
43457;SDS011;29046;54.184;18.680;2024-03-02T02:05:55;51.00;;;24.80;;
43457;SDS011;29046;54.184;18.680;2024-03-02T02:08:23;39.00;;;22.88;;
43457;SDS011;29046;54.184;18.680;2024-03-02T02:10:51;42.22;;;23.23;;
43457;SDS011;29046;54.184;18.680;2024-03-02T02:13:18;39.70;;;23.55;;
43457;SDS011;29046;54.184;18.680;2024-03-02T02:15:46;38.33;;;23.23;;
43457;SDS011;29046;54.184;18.680;2024-03-02T02:18:14;39.10;;;22.63;;
43457;SDS011;29046;54.184;18.680;2024-03-02T02:20:42;46.30;;;24.65;;
43457;SDS011;29046;54.184;18.680;2024-03-02T02:23:09;48.83;;;25.42;;
43457;SDS011;29046;54.184;18.680;2024-03-02T02:25:38;44.95;;;25.88;;
43457;SDS011;29046;54.184;18.680;2024-03-02T02:28:05;41.83;;;24.40;;
43457;SDS011;29046;54.184;18.680;2024-03-02T02:30:33;41.05;;;23.30;;
43457;SDS011;29046;54.184;18.680;2024-03-02T02:33:01;42.42;;;25.08;;
43457;SDS011;29046;54.184;18.680;2024-03-02T02:35:29;37.38;;;23.60;;
43457;SDS011;29046;54.184;18.680;2024-03-02T02:37:57;38.60;;;21.95;;
43457;SDS011;29046;54.184;18.680;2024-03-02T02:40:28;42.60;;;23.30;;
43457;SDS011;29046;54.184;18.680;2024-03-02T02:42:59;41.80;;;22.63;;
43457;SDS011;29046;54.184;18.680;2024-03-02T02:45:27;39.80;;;23.63;;
43457;SDS011;29046;54.184;18.680;2024-03-02T02:47:54;44.05;;;25.17;;
43457;SDS011;29046;54.184;18.680;2024-03-02T02:50:22;40.67;;;23.70;;
43457;SDS011;29046;54.184;18.680;2024-03-02T02:52:50;41.70;;;23.63;;
43457;SDS011;29046;54.184;18.680;2024-03-02T02:55:17;43.95;;;23.85;;
43457;SDS011;29046;54.184;18.680;2024-03-02T02:57:45;46.65;;;25.45;;
43457;SDS011;29046;54.184;18.680;2024-03-02T03:00:14;49.38;;;25.70;;
43457;SDS011;29046;54.184;18.680;2024-03-02T03:02:45;41.53;;;24.35;;
43457;SDS011;29046;54.184;18.680;2024-03-02T03:05:14;42.00;;;23.50;;
43457;SDS011;29046;54.184;18.680;2024-03-02T03:07:42;37.53;;;22.75;;
43457;SDS011;29046;54.184;18.680;2024-03-02T03:10:11;40.22;;;20.95;;
43457;SDS011;29046;54.184;18.680;2024-03-02T03:12:41;40.17;;;23.73;;
43457;SDS011;29046;54.184;18.680;2024-03-02T03:15:11;40.85;;;21.27;;
43457;SDS011;29046;54.184;18.680;2024-03-02T03:17:39;40.50;;;23.42;;
43457;SDS011;29046;54.184;18.680;2024-03-02T03:20:08;35.15;;;20.95;;
43457;SDS011;29046;54.184;18.680;2024-03-02T03:22:42;38.38;;;22.95;;
43457;SDS011;29046;54.184;18.680;2024-03-02T03:25:10;37.25;;;22.52;;
43457;SDS011;29046;54.184;18.680;2024-03-02T03:27:37;37.03;;;21.60;;
43457;SDS011;29046;54.184;18.680;2024-03-02T03:30:05;38.97;;;22.58;;
43457;SDS011;29046;54.184;18.680;2024-03-02T03:32:34;42.72;;;22.70;;
43457;SDS011;29046;54.184;18.680;2024-03-02T03:35:02;35.78;;;22.65;;
43457;SDS011;29046;54.184;18.680;2024-03-02T03:37:29;38.60;;;22.65;;
43457;SDS011;29046;54.184;18.680;2024-03-02T03:40:02;37.83;;;22.63;;
43457;SDS011;29046;54.184;18.680;2024-03-02T03:42:33;42.40;;;23.13;;
43457;SDS011;29046;54.184;18.680;2024-03-02T03:45:02;40.95;;;22.92;;
43457;SDS011;29046;54.184;18.680;2024-03-02T03:47:30;35.67;;;21.23;;
43457;SDS011;29046;54.184;18.680;2024-03-02T03:49:58;44.42;;;24.40;;
43457;SDS011;29046;54.184;18.680;2024-03-02T03:52:26;43.00;;;22.45;;
43457;SDS011;29046;54.184;18.680;2024-03-02T03:54:54;44.25;;;25.48;;
43457;SDS011;29046;54.184;18.680;2024-03-02T03:57:21;48.25;;;27.80;;
43457;SDS011;29046;54.184;18.680;2024-03-02T03:59:49;48.70;;;27.35;;
43457;SDS011;29046;54.184;18.680;2024-03-02T04:02:17;49.55;;;26.05;;
43457;SDS011;29046;54.184;18.680;2024-03-02T04:04:45;46.55;;;24.67;;
43457;SDS011;29046;54.184;18.680;2024-03-02T04:07:13;46.03;;;26.45;;
43457;SDS011;29046;54.184;18.680;2024-03-02T04:09:40;44.45;;;25.58;;
43457;SDS011;29046;54.184;18.680;2024-03-02T04:12:08;46.80;;;25.45;;
43457;SDS011;29046;54.184;18.680;2024-03-02T04:14:36;49.70;;;26.70;;
43457;SDS011;29046;54.184;18.680;2024-03-02T04:17:04;44.58;;;26.30;;
43457;SDS011;29046;54.184;18.680;2024-03-02T04:19:32;47.92;;;25.80;;
43457;SDS011;29046;54.184;18.680;2024-03-02T04:21:59;53.03;;;27.52;;
43457;SDS011;29046;54.184;18.680;2024-03-02T04:24:41;46.97;;;26.85;;
43457;SDS011;29046;54.184;18.680;2024-03-02T04:27:08;45.00;;;25.90;;
43457;SDS011;29046;54.184;18.680;2024-03-02T04:29:36;45.40;;;25.58;;
43457;SDS011;29046;54.184;18.680;2024-03-02T04:32:03;43.83;;;27.15;;
43457;SDS011;29046;54.184;18.680;2024-03-02T04:34:31;47.65;;;24.98;;
43457;SDS011;29046;54.184;18.680;2024-03-02T04:36:59;43.83;;;24.63;;
43457;SDS011;29046;54.184;18.680;2024-03-02T04:39:27;48.83;;;26.58;;
43457;SDS011;29046;54.184;18.680;2024-03-02T04:41:55;44.00;;;26.05;;
43457;SDS011;29046;54.184;18.680;2024-03-02T04:44:22;47.20;;;25.95;;
43457;SDS011;29046;54.184;18.680;2024-03-02T04:46:50;47.95;;;25.50;;
43457;SDS011;29046;54.184;18.680;2024-03-02T04:49:18;49.58;;;27.08;;
43457;SDS011;29046;54.184;18.680;2024-03-02T04:51:45;47.17;;;24.25;;
43457;SDS011;29046;54.184;18.680;2024-03-02T04:54:13;50.08;;;26.75;;
43457;SDS011;29046;54.184;18.680;2024-03-02T04:56:41;43.90;;;24.63;;
43457;SDS011;29046;54.184;18.680;2024-03-02T04:59:16;41.60;;;24.95;;
43457;SDS011;29046;54.184;18.680;2024-03-02T05:01:44;50.25;;;27.20;;
43457;SDS011;29046;54.184;18.680;2024-03-02T05:04:12;43.78;;;25.25;;
43457;SDS011;29046;54.184;18.680;2024-03-02T05:06:40;45.10;;;26.60;;
43457;SDS011;29046;54.184;18.680;2024-03-02T05:09:08;49.85;;;27.73;;
43457;SDS011;29046;54.184;18.680;2024-03-02T05:11:36;49.50;;;26.85;;
43457;SDS011;29046;54.184;18.680;2024-03-02T05:14:06;51.42;;;25.83;;
43457;SDS011;29046;54.184;18.680;2024-03-02T05:16:37;49.83;;;26.65;;
43457;SDS011;29046;54.184;18.680;2024-03-02T05:19:05;50.38;;;27.98;;
43457;SDS011;29046;54.184;18.680;2024-03-02T05:21:33;51.60;;;27.35;;
43457;SDS011;29046;54.184;18.680;2024-03-02T05:24:01;54.50;;;28.83;;
43457;SDS011;29046;54.184;18.680;2024-03-02T05:26:28;45.25;;;26.98;;
43457;SDS011;29046;54.184;18.680;2024-03-02T05:28:56;47.83;;;27.88;;
43457;SDS011;29046;54.184;18.680;2024-03-02T05:31:24;54.58;;;29.50;;
43457;SDS011;29046;54.184;18.680;2024-03-02T05:33:52;50.13;;;27.10;;
43457;SDS011;29046;54.184;18.680;2024-03-02T05:36:23;57.67;;;29.25;;
43457;SDS011;29046;54.184;18.680;2024-03-02T05:38:52;61.10;;;30.75;;
43457;SDS011;29046;54.184;18.680;2024-03-02T05:41:19;51.00;;;28.35;;
43457;SDS011;29046;54.184;18.680;2024-03-02T05:43:47;59.25;;;32.25;;
43457;SDS011;29046;54.184;18.680;2024-03-02T05:46:16;59.83;;;29.20;;
43457;SDS011;29046;54.184;18.680;2024-03-02T05:48:43;51.92;;;30.15;;
43457;SDS011;29046;54.184;18.680;2024-03-02T05:51:11;57.17;;;29.60;;
43457;SDS011;29046;54.184;18.680;2024-03-02T05:53:38;64.22;;;31.50;;
43457;SDS011;29046;54.184;18.680;2024-03-02T05:56:06;57.38;;;29.02;;
43457;SDS011;29046;54.184;18.680;2024-03-02T05:58:34;57.25;;;30.70;;
43457;SDS011;29046;54.184;18.680;2024-03-02T06:01:22;57.53;;;29.17;;
43457;SDS011;29046;54.184;18.680;2024-03-02T06:03:55;62.28;;;31.45;;
43457;SDS011;29046;54.184;18.680;2024-03-02T06:06:23;67.93;;;31.35;;
43457;SDS011;29046;54.184;18.680;2024-03-02T06:08:51;62.90;;;31.67;;
43457;SDS011;29046;54.184;18.680;2024-03-02T06:11:19;62.67;;;32.70;;
43457;SDS011;29046;54.184;18.680;2024-03-02T06:13:47;60.97;;;32.22;;
43457;SDS011;29046;54.184;18.680;2024-03-02T06:16:14;64.43;;;33.20;;
43457;SDS011;29046;54.184;18.680;2024-03-02T06:18:42;67.18;;;34.78;;
43457;SDS011;29046;54.184;18.680;2024-03-02T06:21:09;56.25;;;32.63;;
43457;SDS011;29046;54.184;18.680;2024-03-02T06:23:37;70.82;;;34.67;;
43457;SDS011;29046;54.184;18.680;2024-03-02T06:26:05;66.20;;;34.75;;
43457;SDS011;29046;54.184;18.680;2024-03-02T06:28:32;63.42;;;32.63;;
43457;SDS011;29046;54.184;18.680;2024-03-02T06:31:01;60.05;;;32.33;;
43457;SDS011;29046;54.184;18.680;2024-03-02T06:33:29;63.80;;;34.25;;
43457;SDS011;29046;54.184;18.680;2024-03-02T06:35:56;75.25;;;34.20;;
43457;SDS011;29046;54.184;18.680;2024-03-02T06:38:24;81.32;;;38.08;;
43457;SDS011;29046;54.184;18.680;2024-03-02T06:40:52;61.55;;;33.42;;
43457;SDS011;29046;54.184;18.680;2024-03-02T06:43:20;58.33;;;31.65;;
43457;SDS011;29046;54.184;18.680;2024-03-02T06:45:51;57.13;;;29.33;;
43457;SDS011;29046;54.184;18.680;2024-03-02T06:48:19;58.55;;;30.77;;
43457;SDS011;29046;54.184;18.680;2024-03-02T06:50:47;57.28;;;30.83;;
43457;SDS011;29046;54.184;18.680;2024-03-02T06:53:14;49.03;;;28.65;;
43457;SDS011;29046;54.184;18.680;2024-03-02T06:55:44;57.10;;;29.95;;
43457;SDS011;29046;54.184;18.680;2024-03-02T06:58:15;57.85;;;32.28;;
43457;SDS011;29046;54.184;18.680;2024-03-02T07:00:43;52.95;;;31.65;;
43457;SDS011;29046;54.184;18.680;2024-03-02T07:03:15;57.08;;;30.25;;
43457;SDS011;29046;54.184;18.680;2024-03-02T07:05:42;54.92;;;30.23;;
43457;SDS011;29046;54.184;18.680;2024-03-02T07:08:10;51.00;;;27.60;;
43457;SDS011;29046;54.184;18.680;2024-03-02T07:10:38;45.47;;;26.20;;
43457;SDS011;29046;54.184;18.680;2024-03-02T07:13:05;51.17;;;28.63;;
43457;SDS011;29046;54.184;18.680;2024-03-02T07:15:33;45.42;;;27.38;;
43457;SDS011;29046;54.184;18.680;2024-03-02T07:18:17;53.83;;;28.55;;
43457;SDS011;29046;54.184;18.680;2024-03-02T07:20:44;48.65;;;28.58;;
43457;SDS011;29046;54.184;18.680;2024-03-02T07:23:12;49.38;;;27.88;;
43457;SDS011;29046;54.184;18.680;2024-03-02T07:25:39;50.25;;;28.77;;
43457;SDS011;29046;54.184;18.680;2024-03-02T07:28:10;47.20;;;27.17;;
43457;SDS011;29046;54.184;18.680;2024-03-02T07:30:38;53.20;;;27.92;;
43457;SDS011;29046;54.184;18.680;2024-03-02T07:33:06;50.70;;;28.20;;
43457;SDS011;29046;54.184;18.680;2024-03-02T07:35:34;52.38;;;28.98;;
43457;SDS011;29046;54.184;18.680;2024-03-02T07:38:02;55.75;;;28.23;;
43457;SDS011;29046;54.184;18.680;2024-03-02T07:40:30;51.60;;;26.98;;
43457;SDS011;29046;54.184;18.680;2024-03-02T07:42:58;52.58;;;26.42;;
43457;SDS011;29046;54.184;18.680;2024-03-02T07:45:25;50.67;;;28.17;;
43457;SDS011;29046;54.184;18.680;2024-03-02T07:47:53;52.83;;;29.70;;
43457;SDS011;29046;54.184;18.680;2024-03-02T07:50:21;56.67;;;30.63;;
43457;SDS011;29046;54.184;18.680;2024-03-02T07:52:49;48.50;;;27.52;;
43457;SDS011;29046;54.184;18.680;2024-03-02T07:55:16;57.53;;;29.48;;
43457;SDS011;29046;54.184;18.680;2024-03-02T07:57:44;54.72;;;27.67;;
43457;SDS011;29046;54.184;18.680;2024-03-02T08:00:11;50.70;;;28.05;;
43457;SDS011;29046;54.184;18.680;2024-03-02T08:02:40;49.55;;;27.00;;
43457;SDS011;29046;54.184;18.680;2024-03-02T08:05:08;52.15;;;28.80;;
43457;SDS011;29046;54.184;18.680;2024-03-02T08:07:36;54.53;;;29.48;;
43457;SDS011;29046;54.184;18.680;2024-03-02T08:10:04;59.22;;;27.40;;
43457;SDS011;29046;54.184;18.680;2024-03-02T08:12:32;56.70;;;28.67;;
43457;SDS011;29046;54.184;18.680;2024-03-02T08:15:00;64.50;;;29.55;;
43457;SDS011;29046;54.184;18.680;2024-03-02T08:17:28;58.05;;;28.95;;
43457;SDS011;29046;54.184;18.680;2024-03-02T08:19:55;49.00;;;28.50;;
43457;SDS011;29046;54.184;18.680;2024-03-02T08:22:23;52.47;;;27.60;;
43457;SDS011;29046;54.184;18.680;2024-03-02T08:24:54;55.10;;;28.48;;
43457;SDS011;29046;54.184;18.680;2024-03-02T08:27:22;55.53;;;27.83;;
43457;SDS011;29046;54.184;18.680;2024-03-02T08:29:49;46.55;;;26.40;;
43457;SDS011;29046;54.184;18.680;2024-03-02T08:32:17;52.08;;;27.15;;
43457;SDS011;29046;54.184;18.680;2024-03-02T08:34:46;45.10;;;26.75;;
43457;SDS011;29046;54.184;18.680;2024-03-02T08:37:13;42.65;;;25.70;;
43457;SDS011;29046;54.184;18.680;2024-03-02T08:39:41;50.53;;;25.75;;
43457;SDS011;29046;54.184;18.680;2024-03-02T08:42:09;45.60;;;25.95;;
43457;SDS011;29046;54.184;18.680;2024-03-02T08:44:36;49.47;;;28.08;;
43457;SDS011;29046;54.184;18.680;2024-03-02T08:47:04;50.30;;;25.73;;
43457;SDS011;29046;54.184;18.680;2024-03-02T08:49:32;46.47;;;24.45;;
43457;SDS011;29046;54.184;18.680;2024-03-02T08:52:00;50.90;;;25.95;;
43457;SDS011;29046;54.184;18.680;2024-03-02T08:54:27;42.90;;;26.33;;
43457;SDS011;29046;54.184;18.680;2024-03-02T08:56:55;47.47;;;26.38;;
43457;SDS011;29046;54.184;18.680;2024-03-02T08:59:23;49.38;;;25.63;;
43457;SDS011;29046;54.184;18.680;2024-03-02T09:01:52;48.58;;;26.73;;
43457;SDS011;29046;54.184;18.680;2024-03-02T09:04:19;46.22;;;25.38;;
43457;SDS011;29046;54.184;18.680;2024-03-02T09:06:51;42.55;;;25.52;;
43457;SDS011;29046;54.184;18.680;2024-03-02T09:09:19;51.17;;;25.80;;
43457;SDS011;29046;54.184;18.680;2024-03-02T09:11:47;47.25;;;24.98;;
43457;SDS011;29046;54.184;18.680;2024-03-02T09:14:15;41.50;;;24.65;;
43457;SDS011;29046;54.184;18.680;2024-03-02T09:16:43;40.80;;;24.38;;
43457;SDS011;29046;54.184;18.680;2024-03-02T09:19:10;47.53;;;24.83;;
43457;SDS011;29046;54.184;18.680;2024-03-02T09:21:38;39.70;;;24.65;;
43457;SDS011;29046;54.184;18.680;2024-03-02T09:24:06;46.22;;;26.48;;
43457;SDS011;29046;54.184;18.680;2024-03-02T09:26:34;40.85;;;25.42;;
43457;SDS011;29046;54.184;18.680;2024-03-02T09:29:01;44.60;;;25.15;;
43457;SDS011;29046;54.184;18.680;2024-03-02T09:31:29;41.10;;;25.30;;
43457;SDS011;29046;54.184;18.680;2024-03-02T09:33:57;42.53;;;23.67;;
43457;SDS011;29046;54.184;18.680;2024-03-02T09:36:24;39.53;;;23.50;;
43457;SDS011;29046;54.184;18.680;2024-03-02T09:38:52;42.40;;;25.65;;
43457;SDS011;29046;54.184;18.680;2024-03-02T09:41:20;41.75;;;26.27;;
43457;SDS011;29046;54.184;18.680;2024-03-02T09:43:47;38.53;;;23.30;;
43457;SDS011;29046;54.184;18.680;2024-03-02T09:46:15;35.70;;;23.02;;
43457;SDS011;29046;54.184;18.680;2024-03-02T09:48:46;38.15;;;23.05;;
43457;SDS011;29046;54.184;18.680;2024-03-02T09:51:14;43.38;;;22.70;;
43457;SDS011;29046;54.184;18.680;2024-03-02T09:53:41;43.45;;;24.38;;
43457;SDS011;29046;54.184;18.680;2024-03-02T09:56:09;41.85;;;24.25;;
43457;SDS011;29046;54.184;18.680;2024-03-02T09:58:38;39.67;;;23.95;;
43457;SDS011;29046;54.184;18.680;2024-03-02T10:01:06;39.03;;;22.02;;
43457;SDS011;29046;54.184;18.680;2024-03-02T10:03:33;46.22;;;24.38;;
43457;SDS011;29046;54.184;18.680;2024-03-02T10:08:47;40.10;;;24.17;;
43457;SDS011;29046;54.184;18.680;2024-03-02T10:11:31;36.13;;;22.45;;
43457;SDS011;29046;54.184;18.680;2024-03-02T10:14:06;42.67;;;24.65;;
43457;SDS011;29046;54.184;18.680;2024-03-02T10:16:35;35.75;;;21.77;;
43457;SDS011;29046;54.184;18.680;2024-03-02T10:19:15;36.17;;;22.25;;
43457;SDS011;29046;54.184;18.680;2024-03-02T10:21:47;39.70;;;22.73;;
43457;SDS011;29046;54.184;18.680;2024-03-02T10:24:19;35.53;;;21.40;;
43457;SDS011;29046;54.184;18.680;2024-03-02T10:26:48;31.15;;;20.70;;
43457;SDS011;29046;54.184;18.680;2024-03-02T10:29:16;35.00;;;21.25;;
43457;SDS011;29046;54.184;18.680;2024-03-02T10:31:45;36.53;;;21.02;;
43457;SDS011;29046;54.184;18.680;2024-03-02T10:34:12;39.47;;;22.35;;
43457;SDS011;29046;54.184;18.680;2024-03-02T10:36:40;35.38;;;21.63;;
43457;SDS011;29046;54.184;18.680;2024-03-02T10:39:09;34.35;;;22.33;;
43457;SDS011;29046;54.184;18.680;2024-03-02T10:41:37;32.95;;;20.52;;
43457;SDS011;29046;54.184;18.680;2024-03-02T10:44:06;40.95;;;22.15;;
43457;SDS011;29046;54.184;18.680;2024-03-02T10:46:35;40.50;;;23.35;;
43457;SDS011;29046;54.184;18.680;2024-03-02T10:49:03;42.08;;;22.75;;
43457;SDS011;29046;54.184;18.680;2024-03-02T10:51:35;35.60;;;21.80;;
43457;SDS011;29046;54.184;18.680;2024-03-02T10:54:03;39.53;;;21.80;;
43457;SDS011;29046;54.184;18.680;2024-03-02T10:56:32;42.78;;;21.75;;
43457;SDS011;29046;54.184;18.680;2024-03-02T10:59:05;33.28;;;19.88;;
43457;SDS011;29046;54.184;18.680;2024-03-02T11:01:34;36.90;;;21.40;;
43457;SDS011;29046;54.184;18.680;2024-03-02T11:04:02;36.45;;;21.75;;
43457;SDS011;29046;54.184;18.680;2024-03-02T11:06:32;38.00;;;23.65;;
43457;SDS011;29046;54.184;18.680;2024-03-02T11:09:02;39.72;;;22.50;;
43457;SDS011;29046;54.184;18.680;2024-03-02T11:11:36;37.80;;;22.42;;
43457;SDS011;29046;54.184;18.680;2024-03-02T11:14:04;37.13;;;22.25;;
43457;SDS011;29046;54.184;18.680;2024-03-02T11:16:38;35.88;;;21.90;;
43457;SDS011;29046;54.184;18.680;2024-03-02T11:19:09;34.15;;;21.70;;
43457;SDS011;29046;54.184;18.680;2024-03-02T11:21:42;35.45;;;22.08;;
43457;SDS011;29046;54.184;18.680;2024-03-02T11:27:07;36.85;;;22.60;;
43457;SDS011;29046;54.184;18.680;2024-03-02T11:34:43;32.90;;;20.77;;
43457;SDS011;29046;54.184;18.680;2024-03-02T11:37:12;38.03;;;22.90;;
43457;SDS011;29046;54.184;18.680;2024-03-02T11:39:40;37.53;;;22.45;;
43457;SDS011;29046;54.184;18.680;2024-03-02T11:42:08;39.05;;;21.38;;
43457;SDS011;29046;54.184;18.680;2024-03-02T11:44:36;32.30;;;20.92;;
43457;SDS011;29046;54.184;18.680;2024-03-02T11:47:08;35.55;;;22.13;;
43457;SDS011;29046;54.184;18.680;2024-03-02T11:49:48;32.77;;;21.30;;
43457;SDS011;29046;54.184;18.680;2024-03-02T11:52:17;42.33;;;25.85;;
43457;SDS011;29046;54.184;18.680;2024-03-02T11:54:46;36.53;;;22.30;;
43457;SDS011;29046;54.184;18.680;2024-03-02T11:57:15;38.05;;;22.90;;
43457;SDS011;29046;54.184;18.680;2024-03-02T11:59:43;33.42;;;22.90;;
43457;SDS011;29046;54.184;18.680;2024-03-02T12:02:19;37.05;;;21.40;;
43457;SDS011;29046;54.184;18.680;2024-03-02T12:04:47;33.45;;;23.08;;
43457;SDS011;29046;54.184;18.680;2024-03-02T12:07:19;32.83;;;21.45;;
43457;SDS011;29046;54.184;18.680;2024-03-02T12:10:00;37.70;;;22.63;;
43457;SDS011;29046;54.184;18.680;2024-03-02T12:12:29;39.03;;;22.88;;
43457;SDS011;29046;54.184;18.680;2024-03-02T12:14:56;33.90;;;21.73;;
43457;SDS011;29046;54.184;18.680;2024-03-02T12:17:26;38.28;;;22.27;;
43457;SDS011;29046;54.184;18.680;2024-03-02T12:19:53;35.88;;;22.23;;
43457;SDS011;29046;54.184;18.680;2024-03-02T12:22:21;37.40;;;22.67;;
43457;SDS011;29046;54.184;18.680;2024-03-02T12:24:49;31.83;;;22.58;;
43457;SDS011;29046;54.184;18.680;2024-03-02T12:27:17;32.67;;;20.63;;
43457;SDS011;29046;54.184;18.680;2024-03-02T12:29:47;36.20;;;21.77;;
43457;SDS011;29046;54.184;18.680;2024-03-02T12:32:15;35.22;;;21.63;;
43457;SDS011;29046;54.184;18.680;2024-03-02T12:34:46;37.25;;;22.98;;
43457;SDS011;29046;54.184;18.680;2024-03-02T12:37:14;41.28;;;22.40;;
43457;SDS011;29046;54.184;18.680;2024-03-02T12:39:44;33.45;;;22.27;;
43457;SDS011;29046;54.184;18.680;2024-03-02T12:42:13;35.45;;;22.08;;
43457;SDS011;29046;54.184;18.680;2024-03-02T12:44:40;33.35;;;21.88;;
43457;SDS011;29046;54.184;18.680;2024-03-02T12:47:08;34.90;;;22.08;;
43457;SDS011;29046;54.184;18.680;2024-03-02T12:49:36;38.05;;;22.60;;
43457;SDS011;29046;54.184;18.680;2024-03-02T12:52:04;42.35;;;23.27;;
43457;SDS011;29046;54.184;18.680;2024-03-02T12:54:31;33.55;;;22.05;;
43457;SDS011;29046;54.184;18.680;2024-03-02T12:57:00;35.80;;;22.35;;
43457;SDS011;29046;54.184;18.680;2024-03-02T12:59:27;37.10;;;22.20;;
43457;SDS011;29046;54.184;18.680;2024-03-02T13:01:55;34.85;;;22.17;;
43457;SDS011;29046;54.184;18.680;2024-03-02T13:04:28;35.80;;;22.30;;
43457;SDS011;29046;54.184;18.680;2024-03-02T13:06:56;37.05;;;22.42;;
43457;SDS011;29046;54.184;18.680;2024-03-02T13:09:24;36.95;;;22.23;;
43457;SDS011;29046;54.184;18.680;2024-03-02T13:11:53;34.20;;;21.98;;
43457;SDS011;29046;54.184;18.680;2024-03-02T13:14:24;36.80;;;21.58;;
43457;SDS011;29046;54.184;18.680;2024-03-02T13:16:53;35.85;;;22.23;;
43457;SDS011;29046;54.184;18.680;2024-03-02T13:19:20;32.38;;;20.88;;
43457;SDS011;29046;54.184;18.680;2024-03-02T13:21:48;36.53;;;20.83;;
43457;SDS011;29046;54.184;18.680;2024-03-02T13:24:17;35.60;;;21.80;;
43457;SDS011;29046;54.184;18.680;2024-03-02T13:26:46;41.88;;;23.73;;
43457;SDS011;29046;54.184;18.680;2024-03-02T13:29:14;40.45;;;22.95;;
43457;SDS011;29046;54.184;18.680;2024-03-02T13:31:41;38.22;;;22.83;;
43457;SDS011;29046;54.184;18.680;2024-03-02T13:34:10;37.22;;;21.27;;
43457;SDS011;29046;54.184;18.680;2024-03-02T13:36:38;37.25;;;20.98;;
43457;SDS011;29046;54.184;18.680;2024-03-02T13:39:05;41.03;;;23.33;;
43457;SDS011;29046;54.184;18.680;2024-03-02T13:41:36;34.45;;;21.40;;
43457;SDS011;29046;54.184;18.680;2024-03-02T13:44:03;40.08;;;23.38;;
43457;SDS011;29046;54.184;18.680;2024-03-02T13:46:31;32.88;;;20.83;;
43457;SDS011;29046;54.184;18.680;2024-03-02T13:48:59;38.35;;;23.00;;
43457;SDS011;29046;54.184;18.680;2024-03-02T13:51:28;39.80;;;23.42;;
43457;SDS011;29046;54.184;18.680;2024-03-02T13:53:55;39.95;;;21.65;;
43457;SDS011;29046;54.184;18.680;2024-03-02T13:56:23;32.08;;;21.10;;
43457;SDS011;29046;54.184;18.680;2024-03-02T13:58:50;40.90;;;23.05;;
43457;SDS011;29046;54.184;18.680;2024-03-02T14:01:18;34.38;;;19.88;;
43457;SDS011;29046;54.184;18.680;2024-03-02T14:03:46;35.85;;;21.70;;
43457;SDS011;29046;54.184;18.680;2024-03-02T14:06:14;38.53;;;19.75;;
43457;SDS011;29046;54.184;18.680;2024-03-02T14:08:41;34.70;;;20.70;;
43457;SDS011;29046;54.184;18.680;2024-03-02T14:11:11;37.97;;;21.73;;
43457;SDS011;29046;54.184;18.680;2024-03-02T14:13:41;32.20;;;20.50;;
43457;SDS011;29046;54.184;18.680;2024-03-02T14:16:11;43.67;;;21.88;;
43457;SDS011;29046;54.184;18.680;2024-03-02T14:18:38;37.47;;;21.85;;
43457;SDS011;29046;54.184;18.680;2024-03-02T14:21:06;40.95;;;20.88;;
43457;SDS011;29046;54.184;18.680;2024-03-02T14:23:34;34.75;;;21.50;;
43457;SDS011;29046;54.184;18.680;2024-03-02T14:26:02;35.70;;;19.77;;
43457;SDS011;29046;54.184;18.680;2024-03-02T14:28:29;38.05;;;19.73;;
43457;SDS011;29046;54.184;18.680;2024-03-02T14:31:16;35.03;;;20.63;;